DAL1325 KPDX-KATL
Flight info
| Callsign | DAL1325 |
|---|---|
| Flight time | N/A |
| Altitude | 31000 |
| Route | LAVAA7 PDT LKT KD69A/N0455F330 PWE DRIVL FAM BNA NEWBB IHAVE MTHEW CHPPR1 |
| Aircraft | MD83/M-SDFGIRWY/S |
Departure
| Time | 2026-04-30 21:16 |
|---|---|
| Airport | Portland International Airport (KPDX) |
Arrival
| Time | N/A |
|---|---|
| Airport | Hartsfield Jackson Atlanta International Airport (KATL) |
| Time | Latitude | Longitude | Altitude | Speed | Heading |
|---|---|---|---|---|---|
| 2026-04-30 20:15 | 45.59019 | -122.60018 | 29 ft | 0 kts | 121° |
| 2026-04-30 21:05 | 45.59024 | -122.60029 | 29 ft | 4 kts | 121° |
| 2026-04-30 21:06 | 45.59038 | -122.60062 | 28 ft | 4 kts | 121° |
| 2026-04-30 21:06 | 45.59050 | -122.60091 | 28 ft | 4 kts | 128° |
| 2026-04-30 21:06 | 45.59067 | -122.60108 | 28 ft | 4 kts | 176° |
| 2026-04-30 21:06 | 45.59090 | -122.60100 | 28 ft | 4 kts | 207° |
| 2026-04-30 21:07 | 45.59099 | -122.60093 | 28 ft | 2 kts | 208° |
| 2026-04-30 21:11 | 45.59091 | -122.60100 | 28 ft | 6 kts | 208° |
| 2026-04-30 21:11 | 45.59022 | -122.60154 | 28 ft | 12 kts | 209° |
| 2026-04-30 21:12 | 45.58948 | -122.60212 | 28 ft | 12 kts | 209° |
| 2026-04-30 21:12 | 45.58872 | -122.60164 | 29 ft | 20 kts | 123° |
| 2026-04-30 21:12 | 45.58783 | -122.59942 | 29 ft | 27 kts | 121° |
| 2026-04-30 21:12 | 45.58692 | -122.59713 | 29 ft | 26 kts | 119° |
| 2026-04-30 21:13 | 45.58606 | -122.59494 | 29 ft | 25 kts | 118° |
| 2026-04-30 21:13 | 45.58521 | -122.59269 | 28 ft | 27 kts | 118° |
| 2026-04-30 21:13 | 45.58433 | -122.59042 | 28 ft | 26 kts | 119° |
| 2026-04-30 21:13 | 45.58348 | -122.58826 | 29 ft | 24 kts | 120° |
| 2026-04-30 21:14 | 45.58265 | -122.58620 | 29 ft | 23 kts | 119° |
| 2026-04-30 21:14 | 45.58188 | -122.58420 | 28 ft | 22 kts | 118° |
| 2026-04-30 21:14 | 45.58117 | -122.58368 | 28 ft | 12 kts | 197° |
| 2026-04-30 21:14 | 45.58071 | -122.58432 | 28 ft | 8 kts | 283° |
| 2026-04-30 21:15 | 45.58081 | -122.58459 | 29 ft | 0 kts | 300° |
| 2026-04-30 21:15 | 45.58197 | -122.58752 | 30 ft | 70 kts | 299° |
| 2026-04-30 21:16 | 45.58527 | -122.59605 | 31 ft | 124 kts | 298° |
| 2026-04-30 21:16 | 45.59012 | -122.60864 | 48 ft | 162 kts | 298° |
| 2026-04-30 21:16 | 45.59589 | -122.62284 | 559 ft | 163 kts | 300° |
| 2026-04-30 21:16 | 45.60171 | -122.63691 | 1109 ft | 175 kts | 301° |
| 2026-04-30 21:17 | 45.60840 | -122.65289 | 1400 ft | 198 kts | 302° |
| 2026-04-30 21:17 | 45.61566 | -122.67045 | 1917 ft | 210 kts | 302° |
| 2026-04-30 21:17 | 45.62319 | -122.68891 | 2475 ft | 225 kts | 300° |
| 2026-04-30 21:17 | 45.63094 | -122.70927 | 2899 ft | 237 kts | 300° |
| 2026-04-30 21:18 | 45.63900 | -122.73009 | 3468 ft | 247 kts | 299° |
| 2026-04-30 21:18 | 45.64792 | -122.75222 | 3852 ft | 265 kts | 302° |
| 2026-04-30 21:18 | 45.65869 | -122.77375 | 4615 ft | 267 kts | 312° |
| 2026-04-30 21:18 | 45.67227 | -122.79174 | 5500 ft | 268 kts | 324° |
| 2026-04-30 21:19 | 45.68890 | -122.80507 | 6052 ft | 282 kts | 338° |
| 2026-04-30 21:19 | 45.70772 | -122.81190 | 6877 ft | 276 kts | 357° |
| 2026-04-30 21:19 | 45.72674 | -122.81044 | 7555 ft | 278 kts | 13° |
| 2026-04-30 21:19 | 45.74508 | -122.80067 | 8047 ft | 284 kts | 33° |
| 2026-04-30 21:20 | 45.76048 | -122.78302 | 8721 ft | 286 kts | 50° |
| 2026-04-30 21:20 | 45.77169 | -122.75939 | 9368 ft | 290 kts | 67° |
| 2026-04-30 21:20 | 45.77771 | -122.73224 | 10153 ft | 285 kts | 82° |
| 2026-04-30 21:20 | 45.77861 | -122.70405 | 10843 ft | 285 kts | 97° |
| 2026-04-30 21:21 | 45.77496 | -122.67602 | 11467 ft | 289 kts | 107° |
| 2026-04-30 21:21 | 45.76764 | -122.64897 | 11984 ft | 295 kts | 117° |
| 2026-04-30 21:21 | 45.74641 | -122.59745 | 13154 ft | 303 kts | 112° |
| 2026-04-30 21:22 | 45.74084 | -122.56815 | 13636 ft | 311 kts | 93° |
| 2026-04-30 21:22 | 45.75054 | -122.47353 | 15190 ft | 321 kts | 83° |
| 2026-04-30 21:23 | 45.75251 | -122.44154 | 15676 ft | 326 kts | 87° |
| 2026-04-30 21:23 | 45.75329 | -122.40846 | 15922 ft | 339 kts | 89° |
| 2026-04-30 21:23 | 45.75308 | -122.33920 | 16838 ft | 350 kts | 92° |
| 2026-04-30 21:24 | 45.75192 | -122.30461 | 17547 ft | 349 kts | 94° |
| 2026-04-30 21:24 | 45.75011 | -122.26954 | 17856 ft | 359 kts | 94° |
| 2026-04-30 21:24 | 45.74892 | -122.23286 | 17807 ft | 381 kts | 90° |
| 2026-04-30 21:24 | 45.74914 | -122.19433 | 18248 ft | 385 kts | 89° |
| 2026-04-30 21:25 | 45.74999 | -122.11742 | 19328 ft | 390 kts | 89° |
| 2026-04-30 21:25 | 45.75000 | -122.07841 | 19779 ft | 394 kts | 90° |
| 2026-04-30 21:25 | 45.74976 | -122.03901 | 20251 ft | 397 kts | 90° |
| 2026-04-30 21:26 | 45.74865 | -121.95929 | 21186 ft | 403 kts | 90° |
| 2026-04-30 21:26 | 45.74798 | -121.91903 | 21598 ft | 406 kts | 90° |
| 2026-04-30 21:27 | 45.74675 | -121.83767 | 22380 ft | 411 kts | 90° |
| 2026-04-30 21:27 | 45.74629 | -121.79655 | 22638 ft | 418 kts | 89° |
| 2026-04-30 21:27 | 45.74608 | -121.75508 | 22805 ft | 425 kts | 89° |
| 2026-04-30 21:28 | 45.74571 | -121.66991 | 23506 ft | 431 kts | 89° |
| 2026-04-30 21:28 | 45.74546 | -121.62691 | 23868 ft | 433 kts | 88° |
| 2026-04-30 21:28 | 45.74496 | -121.54002 | 24451 ft | 439 kts | 88° |
| 2026-04-30 21:29 | 45.74469 | -121.49622 | 24749 ft | 441 kts | 89° |
| 2026-04-30 21:29 | 45.74379 | -121.36337 | 25649 ft | 448 kts | 89° |
| 2026-04-30 21:30 | 45.74315 | -121.27604 | 27587 ft | 416 kts | 88° |
| 2026-04-30 21:31 | 45.74203 | -121.14757 | 27656 ft | 445 kts | 89° |
| 2026-04-30 21:31 | 45.74070 | -121.05930 | 28492 ft | 442 kts | 89° |
| 2026-04-30 21:32 | 45.73960 | -120.97128 | 29088 ft | 442 kts | 88° |
| 2026-04-30 21:32 | 45.73911 | -120.92732 | 29406 ft | 442 kts | 88° |
| 2026-04-30 21:32 | 45.73863 | -120.88335 | 29710 ft | 442 kts | 88° |
| 2026-04-30 21:32 | 45.73813 | -120.83935 | 29996 ft | 442 kts | 88° |
| 2026-04-30 21:33 | 45.73762 | -120.79535 | 30269 ft | 442 kts | 88° |
| 2026-04-30 21:33 | 45.73663 | -120.70745 | 30749 ft | 441 kts | 88° |
| 2026-04-30 21:33 | 45.73612 | -120.66352 | 30896 ft | 443 kts | 88° |
| 2026-04-30 21:34 | 45.73554 | -120.61933 | 31034 ft | 446 kts | 88° |
| 2026-04-30 21:34 | 45.73314 | -120.48421 | 31137 ft | 460 kts | 88° |
| 2026-04-30 21:35 | 45.73155 | -120.39166 | 31142 ft | 470 kts | 88° |
| 2026-04-30 21:35 | 45.72993 | -120.29742 | 31141 ft | 475 kts | 88° |